Cayuse, Oregon
Current Conditions -  °F | °C
As of 4:56 PM on Saturday 22 Nov 2014 (Local Time) from KMEH Reporting Station
Overcast Overcast  
Wind Chill: 27°   Ceiling: 1200
Heat Index: 34°   Visibility: 10mi
Dew Point: 32°   Wind: 9mph
Humidity: 92%   Direction: 270°W
Pressure: 29.87"   Gusts: 20mph
Location:  45.68°N, 118.56°W
Report Text: KMEH 230056Z AUTO 27008G17KT 210V320 10SM BKN012 OVC019 01/00 A2987 RMK AO2 SNE48 SLP129 P0006 T00110000
Loading
Personal Weather Stations






























Interactive Weather Map New forecast layout! Learn more

10-Day Weather Forecast

Advertisements
Track Severe Weather on mobile